Iskenderun, Turkey
Current Conditions -  °F | °C
As of 8:50 PM on Saturday 22 Nov 2014 (Local Time) from LTDA Reporting Station
Few Clouds Few Clouds  
Wind Chill: 55°   Ceiling: Unl
Heat Index: 55°   Visibility: 6mi
Dew Point: 39°   Wind: 5mph
Humidity: 54%   Direction: NA
Pressure: 29.91"   Gusts: NA
Location:  36.58°N, 36.17°E
Report Text: LTDA 221750Z VRB04KT 9999 FEW035 13/04 Q1013
Loading
Personal Weather Stations






























Interactive Weather Map New forecast layout! Learn more

10-Day Weather Forecast

Advertisements
Track Severe Weather on mobile